createdAt,value
2018-07-31T00:00:57.333Z,23.66
2018-07-31T00:01:57.900Z,23.65
2018-07-31T00:02:58.465Z,23.59
2018-07-31T00:03:59.029Z,23.54
2018-07-31T00:04:59.596Z,23.53
2018-07-31T00:06:00.161Z,23.51
2018-07-31T00:07:00.726Z,23.51
2018-07-31T00:08:01.295Z,23.51
2018-07-31T00:09:01.878Z,23.43
2018-07-31T00:10:02.444Z,23.46
2018-07-31T00:11:03.008Z,23.37
2018-07-31T00:12:03.583Z,23.46
2018-07-31T00:13:04.145Z,23.35
2018-07-31T00:14:04.710Z,23.34
2018-07-31T00:15:05.277Z,23.46
2018-07-31T00:16:05.842Z,23.40
2018-07-31T00:17:06.407Z,23.31
2018-07-31T00:18:06.972Z,23.34
2018-07-31T00:19:07.539Z,23.27
2018-07-31T00:20:08.125Z,23.32
2018-07-31T00:21:08.691Z,23.24
2018-07-31T00:22:09.255Z,23.27
2018-07-31T00:23:09.820Z,23.15
2018-07-31T00:24:10.385Z,23.21
2018-07-31T00:25:10.949Z,23.18
2018-07-31T00:26:11.559Z,23.15
2018-07-31T00:27:12.083Z,23.13
2018-07-31T00:28:12.648Z,23.06
2018-07-31T00:29:13.213Z,22.99
2018-07-31T00:30:13.777Z,23.02
2018-07-31T00:31:14.343Z,23.00
2018-07-31T00:32:14.910Z,23.00
2018-07-31T00:33:15.494Z,22.90
2018-07-31T00:34:16.084Z,22.97
2018-07-31T00:35:16.644Z,22.93
2018-07-31T00:36:17.211Z,22.93
2018-07-31T00:37:17.808Z,22.84
2018-07-31T00:38:18.398Z,22.84
2018-07-31T00:39:18.982Z,22.78
2018-07-31T00:40:19.547Z,22.73
2018-07-31T00:41:20.112Z,22.69
2018-07-31T00:42:20.676Z,22.69
2018-07-31T00:43:21.263Z,22.68
2018-07-31T00:44:21.827Z,22.63
2018-07-31T00:45:22.413Z,22.55
2018-07-31T00:46:22.978Z,22.54
2018-07-31T00:47:23.542Z,22.50
2018-07-31T00:48:24.108Z,22.51
2018-07-31T00:49:24.673Z,22.46
2018-07-31T00:50:25.236Z,22.47
2018-07-31T00:51:25.803Z,22.47
2018-07-31T00:52:26.369Z,22.46
2018-07-31T00:53:26.954Z,22.42
2018-07-31T00:54:27.518Z,22.44
2018-07-31T00:55:28.085Z,22.32
2018-07-31T00:56:28.648Z,22.23
2018-07-31T00:57:29.212Z,22.28
2018-07-31T00:58:29.778Z,22.36
2018-07-31T00:59:30.341Z,22.26
2018-07-31T01:00:30.908Z,22.31
2018-07-31T01:01:31.472Z,22.24
2018-07-31T01:02:32.041Z,22.21
2018-07-31T01:03:32.602Z,22.23
2018-07-31T01:04:33.170Z,22.20
2018-07-31T01:05:33.755Z,22.18
2018-07-31T01:06:34.318Z,22.17
2018-07-31T01:07:34.904Z,22.08
2018-07-31T01:08:35.475Z,22.16
2018-07-31T01:09:36.033Z,22.05
2018-07-31T01:10:36.601Z,22.07
2018-07-31T01:11:37.163Z,21.99
2018-07-31T01:12:37.728Z,22.11
2018-07-31T01:13:38.293Z,21.93
2018-07-31T01:14:38.868Z,21.95
2018-07-31T01:15:39.423Z,22.02
2018-07-31T01:16:39.988Z,21.98
2018-07-31T01:17:40.552Z,21.93
2018-07-31T01:18:41.118Z,21.93
2018-07-31T01:19:41.704Z,22.01
2018-07-31T01:20:42.272Z,21.86
2018-07-31T01:21:42.835Z,21.95
2018-07-31T01:22:43.398Z,21.85
2018-07-31T01:23:43.963Z,21.93
2018-07-31T01:24:44.527Z,21.86
2018-07-31T01:25:45.095Z,21.83
2018-07-31T01:26:45.658Z,21.91
2018-07-31T01:27:46.221Z,21.89
2018-07-31T01:28:46.786Z,21.95
2018-07-31T01:29:47.350Z,21.86
2018-07-31T01:30:47.916Z,21.89
2018-07-31T01:31:48.480Z,21.89
2018-07-31T01:32:49.044Z,21.89
2018-07-31T01:33:49.635Z,21.91
2018-07-31T01:34:50.194Z,21.82
2018-07-31T01:35:50.758Z,21.83
2018-07-31T01:36:51.321Z,21.79
2018-07-31T01:37:51.886Z,21.89
2018-07-31T01:38:52.449Z,21.92
2018-07-31T01:39:53.036Z,21.86
2018-07-31T01:40:53.620Z,21.82
2018-07-31T01:41:54.189Z,21.75
2018-07-31T01:42:54.751Z,21.79
2018-07-31T01:43:55.318Z,21.75
2018-07-31T01:44:55.904Z,21.75
2018-07-31T01:45:56.535Z,21.76
2018-07-31T01:46:57.053Z,21.75
2018-07-31T01:47:57.617Z,21.82
2018-07-31T01:48:58.185Z,21.76
2018-07-31T01:49:58.785Z,21.82
2018-07-31T01:50:59.351Z,21.75
2018-07-31T01:51:59.920Z,21.77
2018-07-31T01:53:00.481Z,21.75
2018-07-31T01:54:01.048Z,21.72
2018-07-31T01:55:01.610Z,21.76
2018-07-31T01:56:02.176Z,21.75
2018-07-31T01:57:02.739Z,21.72
2018-07-31T01:58:03.304Z,21.65
2018-07-31T01:59:03.869Z,21.67
2018-07-31T02:00:04.433Z,21.67
2018-07-31T02:01:05.001Z,21.64
2018-07-31T02:02:05.571Z,21.64
2018-07-31T02:03:06.149Z,21.55
2018-07-31T02:04:06.734Z,21.51
2018-07-31T02:05:07.298Z,21.55
2018-07-31T02:06:07.866Z,21.58
2018-07-31T02:07:08.428Z,21.55
2018-07-31T02:08:08.993Z,21.51
2018-07-31T02:09:09.556Z,21.51
2018-07-31T02:10:10.121Z,21.55
2018-07-31T02:11:10.684Z,21.62
2018-07-31T02:12:11.248Z,21.52
2018-07-31T02:13:11.815Z,21.52
2018-07-31T02:14:12.379Z,21.45
2018-07-31T02:15:12.945Z,21.42
2018-07-31T02:16:13.510Z,21.49
2018-07-31T02:17:14.140Z,21.39
2018-07-31T02:18:14.658Z,21.39
2018-07-31T02:19:15.222Z,21.43
2018-07-31T02:20:15.810Z,21.30
2018-07-31T02:21:16.373Z,21.37
2018-07-31T02:22:16.938Z,21.33
2018-07-31T02:23:17.504Z,21.37
2018-07-31T02:24:18.067Z,21.32
2018-07-31T02:25:18.632Z,21.28
2018-07-31T02:26:19.195Z,21.33
2018-07-31T02:27:19.810Z,21.37
2018-07-31T02:28:20.508Z,21.35
2018-07-31T02:29:20.957Z,21.28
2018-07-31T02:30:21.541Z,21.32
2018-07-31T02:31:22.106Z,21.30
2018-07-31T02:32:22.670Z,21.22
2018-07-31T02:33:23.234Z,21.17
2018-07-31T02:34:23.801Z,21.20
2018-07-31T02:35:24.383Z,21.20
2018-07-31T02:36:24.970Z,21.03
2018-07-31T02:37:25.533Z,20.92
2018-07-31T02:38:26.099Z,20.95
2018-07-31T02:39:26.665Z,20.99
2018-07-31T02:40:27.228Z,20.92
2018-07-31T02:41:27.798Z,20.88
2018-07-31T02:42:28.377Z,20.95
2018-07-31T02:43:28.942Z,20.88
2018-07-31T02:44:29.506Z,20.87
2018-07-31T02:45:30.069Z,20.85
2018-07-31T02:46:30.633Z,20.88
2018-07-31T02:47:31.197Z,20.77
2018-07-31T02:48:31.762Z,20.81
2018-07-31T02:49:32.325Z,20.81
2018-07-31T02:50:32.898Z,20.84
2018-07-31T02:51:33.481Z,20.82
2018-07-31T02:52:34.067Z,20.80
2018-07-31T02:53:34.632Z,20.85
2018-07-31T02:54:35.217Z,20.82
2018-07-31T02:55:35.780Z,20.84
2018-07-31T02:56:36.344Z,20.80
2018-07-31T02:57:36.930Z,20.81
2018-07-31T02:58:37.494Z,20.82
2018-07-31T02:59:38.058Z,20.80
2018-07-31T03:00:38.624Z,20.80
2018-07-31T03:01:39.196Z,20.87
2018-07-31T03:02:39.776Z,20.81
2018-07-31T03:03:40.345Z,20.78
2018-07-31T03:04:40.906Z,20.73
2018-07-31T03:05:41.495Z,20.80
2018-07-31T03:06:42.055Z,20.84
2018-07-31T03:07:42.617Z,20.77
2018-07-31T03:08:43.204Z,20.77
2018-07-31T03:09:43.767Z,20.67
2018-07-31T03:10:44.352Z,20.77
2018-07-31T03:11:44.916Z,20.72
2018-07-31T03:12:45.481Z,20.69
2018-07-31T03:13:46.065Z,20.77
2018-07-31T03:14:46.632Z,20.72
2018-07-31T03:15:47.215Z,20.69
2018-07-31T03:16:47.801Z,20.69
2018-07-31T03:17:48.364Z,20.69
2018-07-31T03:18:48.928Z,20.69
2018-07-31T03:19:49.498Z,20.66
2018-07-31T03:20:50.058Z,20.65
2018-07-31T03:21:50.620Z,20.59
2018-07-31T03:22:51.182Z,20.59
2018-07-31T03:23:51.746Z,20.54
2018-07-31T03:24:52.309Z,20.50
2018-07-31T03:25:52.874Z,20.60
2018-07-31T03:26:53.438Z,20.55
2018-07-31T03:27:54.005Z,20.47
2018-07-31T03:28:54.564Z,20.51
2018-07-31T03:29:55.132Z,20.48
2018-07-31T03:30:55.695Z,20.48
2018-07-31T03:31:56.260Z,20.43
2018-07-31T03:32:56.845Z,20.40
2018-07-31T03:33:57.411Z,20.40
2018-07-31T03:34:57.976Z,20.31
2018-07-31T03:35:58.561Z,20.34
2018-07-31T03:36:59.125Z,20.42
2018-07-31T03:37:59.712Z,20.34
2018-07-31T03:39:00.278Z,20.36
2018-07-31T03:40:00.843Z,20.39
2018-07-31T03:41:01.408Z,20.39
2018-07-31T03:42:01.972Z,20.44
2018-07-31T03:43:02.537Z,20.36
2018-07-31T03:44:03.103Z,20.43
2018-07-31T03:45:03.670Z,20.40
2018-07-31T03:46:04.256Z,20.40
2018-07-31T03:47:04.823Z,20.44
2018-07-31T03:48:05.388Z,20.39
2018-07-31T03:49:05.952Z,20.39
2018-07-31T03:50:06.576Z,20.35
2018-07-31T03:51:07.088Z,20.40
2018-07-31T03:52:07.652Z,20.43
2018-07-31T03:53:08.218Z,20.40
2018-07-31T03:54:08.784Z,20.43
2018-07-31T03:55:09.350Z,20.32
2018-07-31T03:56:09.917Z,20.29
2018-07-31T03:57:10.485Z,20.39
2018-07-31T03:58:11.054Z,20.35
2018-07-31T03:59:11.620Z,20.28
2018-07-31T04:00:12.190Z,20.28
2018-07-31T04:01:12.776Z,20.39
2018-07-31T04:02:13.368Z,20.21
2018-07-31T04:03:13.930Z,20.16
2018-07-31T04:04:14.498Z,20.02
2018-07-31T04:05:15.087Z,19.94
2018-07-31T04:06:15.652Z,19.91
2018-07-31T04:07:16.247Z,19.89
2018-07-31T04:08:16.818Z,19.88
2018-07-31T04:09:17.403Z,19.87
2018-07-31T04:10:17.969Z,19.91
2018-07-31T04:11:18.538Z,19.92
2018-07-31T04:12:19.106Z,19.96
2018-07-31T04:13:19.688Z,19.99
2018-07-31T04:14:20.262Z,20.03
2018-07-31T04:15:20.882Z,20.03
2018-07-31T04:16:21.450Z,20.13
2018-07-31T04:17:22.020Z,20.14
2018-07-31T04:18:22.587Z,20.25
2018-07-31T04:19:23.155Z,20.11
2018-07-31T04:20:23.722Z,20.13
2018-07-31T04:21:24.291Z,20.22
2018-07-31T04:22:24.865Z,20.10
2018-07-31T04:23:25.448Z,20.14
2018-07-31T04:24:26.015Z,20.26
2018-07-31T04:25:26.581Z,20.31
2018-07-31T04:26:27.151Z,20.22
2018-07-31T04:27:27.723Z,20.34
2018-07-31T04:28:28.307Z,20.24
2018-07-31T04:29:28.875Z,20.28
2018-07-31T04:30:29.466Z,20.26
2018-07-31T04:31:30.033Z,20.31
2018-07-31T04:32:30.605Z,20.32
2018-07-31T04:33:31.168Z,20.47
2018-07-31T04:34:31.737Z,20.54
2018-07-31T04:35:32.303Z,20.51
2018-07-31T04:36:32.871Z,20.55
2018-07-31T04:37:33.440Z,20.62
2018-07-31T04:38:34.010Z,20.59
2018-07-31T04:39:34.579Z,20.57
2018-07-31T04:40:35.145Z,20.60
2018-07-31T04:41:35.714Z,20.55
2018-07-31T04:42:36.283Z,20.67
2018-07-31T04:43:36.852Z,20.80
2018-07-31T04:44:37.422Z,20.77
2018-07-31T04:45:37.995Z,20.82
2018-07-31T04:46:38.584Z,20.85
2018-07-31T04:47:39.153Z,21.06
2018-07-31T04:48:39.725Z,21.35
2018-07-31T04:49:40.305Z,21.57
2018-07-31T04:50:40.877Z,22.01
2018-07-31T04:51:41.450Z,22.31
2018-07-31T04:52:42.044Z,22.58
2018-07-31T04:53:42.615Z,22.50
2018-07-31T04:54:43.187Z,22.54
2018-07-31T04:55:43.758Z,22.79
2018-07-31T04:56:44.347Z,23.12
2018-07-31T04:57:44.926Z,23.09
2018-07-31T04:58:45.498Z,23.12
2018-07-31T04:59:46.069Z,23.25
2018-07-31T05:00:46.646Z,23.71
2018-07-31T05:01:47.220Z,23.96
2018-07-31T05:02:47.803Z,24.48
2018-07-31T05:03:48.397Z,24.89
2018-07-31T05:04:48.974Z,25.01
2018-07-31T05:05:49.565Z,25.31
2018-07-31T05:06:50.162Z,25.68
2018-07-31T05:07:50.737Z,25.78
2018-07-31T05:08:51.312Z,25.61
2018-07-31T05:09:51.889Z,25.81
2018-07-31T05:10:52.488Z,25.94
2018-07-31T05:11:53.062Z,26.00
2018-07-31T05:12:53.638Z,26.41
2018-07-31T05:13:54.214Z,26.71
2018-07-31T05:14:54.791Z,26.81
2018-07-31T05:15:55.370Z,26.96
2018-07-31T05:16:55.949Z,27.18
2018-07-31T05:17:56.526Z,27.43
2018-07-31T05:18:57.126Z,27.76
2018-07-31T05:19:57.704Z,28.15
2018-07-31T05:20:58.283Z,28.33
2018-07-31T05:21:58.886Z,28.77
2018-07-31T05:22:59.468Z,29.15
2018-07-31T05:24:00.048Z,29.25
2018-07-31T05:25:00.628Z,29.56
2018-07-31T05:26:01.208Z,29.78
2018-07-31T05:27:01.787Z,30.19
2018-07-31T05:28:02.370Z,30.53
2018-07-31T05:29:02.974Z,30.81
2018-07-31T05:30:03.577Z,31.09
2018-07-31T05:31:04.164Z,31.17
2018-07-31T05:32:04.762Z,31.18
2018-07-31T05:33:05.343Z,31.23
2018-07-31T05:34:05.924Z,31.28
2018-07-31T05:35:06.506Z,31.25
2018-07-31T05:36:07.091Z,31.49
2018-07-31T05:37:07.672Z,31.31
2018-07-31T05:38:08.254Z,30.87
2018-07-31T05:39:08.833Z,30.24
2018-07-31T05:40:09.435Z,29.90
2018-07-31T05:41:10.017Z,29.48
2018-07-31T05:42:10.595Z,29.20
2018-07-31T05:43:11.175Z,29.26
2018-07-31T05:44:11.753Z,29.10
2018-07-31T05:45:12.332Z,28.89
2018-07-31T05:46:12.946Z,29.05
2018-07-31T05:47:13.492Z,29.08
2018-07-31T05:48:14.073Z,29.05
2018-07-31T05:49:14.650Z,28.91
2018-07-31T05:50:15.227Z,28.73
2018-07-31T05:51:15.826Z,28.62
2018-07-31T05:52:16.412Z,28.51
2018-07-31T05:53:17.009Z,28.84
2018-07-31T05:54:17.585Z,29.03
2018-07-31T05:55:18.169Z,29.17
2018-07-31T05:56:18.742Z,29.10
2018-07-31T05:57:19.330Z,29.10
2018-07-31T05:58:19.905Z,28.91
2018-07-31T05:59:20.483Z,29.15
2018-07-31T06:00:21.065Z,29.38
2018-07-31T06:01:21.646Z,29.53
2018-07-31T06:02:22.229Z,30.01
2018-07-31T06:03:22.811Z,30.30
2018-07-31T06:04:23.393Z,30.38
2018-07-31T06:05:23.972Z,30.00
2018-07-31T06:06:24.551Z,29.52
2018-07-31T06:07:25.137Z,29.34
2018-07-31T06:08:25.732Z,29.07
2018-07-31T06:09:26.351Z,28.81
2018-07-31T06:10:26.932Z,28.69
2018-07-31T06:11:27.488Z,28.44
2018-07-31T06:12:28.066Z,28.41
2018-07-31T06:13:28.645Z,28.27
2018-07-31T06:14:29.226Z,28.35
2018-07-31T06:15:29.805Z,28.47
2018-07-31T06:16:30.405Z,28.44
2018-07-31T06:17:30.982Z,28.40
2018-07-31T06:18:31.560Z,28.45
2018-07-31T06:19:32.161Z,28.32
2018-07-31T06:20:32.737Z,28.27
2018-07-31T06:21:33.315Z,28.35
2018-07-31T06:22:33.900Z,28.38
2018-07-31T06:23:34.473Z,28.42
2018-07-31T06:24:35.055Z,28.44
2018-07-31T06:25:35.663Z,28.65
2018-07-31T06:26:36.449Z,28.62
2018-07-31T06:27:37.027Z,28.59
2018-07-31T06:28:37.605Z,28.41
2018-07-31T06:29:38.185Z,28.29
2018-07-31T06:30:38.763Z,28.25
2018-07-31T06:31:39.341Z,28.10
2018-07-31T06:32:39.943Z,28.13
2018-07-31T06:33:40.539Z,27.95
2018-07-31T06:34:41.116Z,27.83
2018-07-31T06:35:41.696Z,27.96
2018-07-31T06:36:42.275Z,27.95
2018-07-31T06:37:42.850Z,28.08
2018-07-31T06:38:43.431Z,28.25
2018-07-31T06:39:44.007Z,28.47
2018-07-31T06:40:44.582Z,28.96
2018-07-31T06:41:45.163Z,29.44
2018-07-31T06:42:45.761Z,29.48
2018-07-31T06:43:46.342Z,29.60
2018-07-31T06:44:46.923Z,29.96
2018-07-31T06:45:47.505Z,30.44
2018-07-31T06:46:48.085Z,30.50
2018-07-31T06:47:48.676Z,30.49
2018-07-31T06:48:49.243Z,30.37
2018-07-31T06:49:49.823Z,30.31
2018-07-31T06:50:50.427Z,30.37
2018-07-31T06:51:51.008Z,30.72
2018-07-31T06:52:51.590Z,30.95
2018-07-31T06:53:52.172Z,31.06
2018-07-31T06:54:52.772Z,31.30
2018-07-31T06:55:53.353Z,31.27
2018-07-31T06:56:53.938Z,30.88
2018-07-31T06:57:54.516Z,30.93
2018-07-31T06:58:55.098Z,30.68
2018-07-31T06:59:55.682Z,30.64
2018-07-31T07:00:56.263Z,30.66
2018-07-31T07:01:56.894Z,30.54
2018-07-31T07:02:57.429Z,30.83
2018-07-31T07:03:58.011Z,31.46
2018-07-31T07:04:58.592Z,32.14
2018-07-31T07:05:59.174Z,32.85
2018-07-31T07:06:59.755Z,32.77
2018-07-31T07:08:00.336Z,32.73
2018-07-31T07:09:00.943Z,32.74
2018-07-31T07:10:01.549Z,33.28
2018-07-31T07:11:02.157Z,33.65
2018-07-31T07:12:02.764Z,34.23
2018-07-31T07:13:03.346Z,34.71
2018-07-31T07:14:03.931Z,34.57
2018-07-31T07:15:04.542Z,34.95
2018-07-31T07:16:05.146Z,35.58
2018-07-31T07:17:05.728Z,35.92
2018-07-31T07:18:06.313Z,35.59
2018-07-31T07:19:06.918Z,35.32
2018-07-31T07:20:07.502Z,35.18
2018-07-31T07:21:08.087Z,34.76
2018-07-31T07:22:08.692Z,34.45
2018-07-31T07:23:09.297Z,34.32
2018-07-31T07:24:09.902Z,34.17
2018-07-31T07:25:10.484Z,34.20
2018-07-31T07:26:11.105Z,34.21
2018-07-31T07:27:11.725Z,34.32
2018-07-31T07:28:12.327Z,34.35
2018-07-31T07:29:12.930Z,34.19
2018-07-31T07:30:13.570Z,33.92
2018-07-31T07:31:14.117Z,33.79
2018-07-31T07:32:14.740Z,33.55
2018-07-31T07:33:15.280Z,33.46
2018-07-31T07:34:15.862Z,33.70
2018-07-31T07:35:16.443Z,33.92
2018-07-31T07:36:17.026Z,34.36
2018-07-31T07:37:17.608Z,34.89
2018-07-31T07:38:18.192Z,35.15
2018-07-31T07:39:18.775Z,35.25
2018-07-31T07:40:19.425Z,35.57
2018-07-31T07:41:19.948Z,35.66
2018-07-31T07:42:20.530Z,35.64
2018-07-31T07:43:21.116Z,35.33
2018-07-31T07:44:21.703Z,35.73
2018-07-31T07:45:22.310Z,36.04
2018-07-31T07:46:22.892Z,36.36
2018-07-31T07:47:23.477Z,36.52
2018-07-31T07:48:24.124Z,36.71
2018-07-31T07:49:24.677Z,36.70
2018-07-31T07:50:25.276Z,37.07
2018-07-31T07:51:25.884Z,37.31
2018-07-31T07:52:26.469Z,37.54
2018-07-31T07:53:27.055Z,37.31
2018-07-31T07:54:27.642Z,37.19
2018-07-31T07:55:28.251Z,37.29
2018-07-31T07:56:28.842Z,37.41
2018-07-31T07:57:29.430Z,37.29
2018-07-31T07:58:30.018Z,37.26
2018-07-31T07:59:30.605Z,37.41
2018-07-31T08:00:31.194Z,37.50
2018-07-31T08:01:31.784Z,37.59
2018-07-31T08:02:32.372Z,37.59
2018-07-31T08:03:32.959Z,37.76
2018-07-31T08:04:33.548Z,37.92
2018-07-31T08:05:34.133Z,38.00
2018-07-31T08:06:34.719Z,38.27
2018-07-31T08:07:35.304Z,38.41
2018-07-31T08:08:35.891Z,38.83
2018-07-31T08:09:36.527Z,39.08
2018-07-31T08:10:37.067Z,39.03
2018-07-31T08:11:37.654Z,38.68
2018-07-31T08:12:38.242Z,38.22
2018-07-31T08:13:38.828Z,37.95
2018-07-31T08:14:39.436Z,37.74
2018-07-31T08:15:40.025Z,37.51
2018-07-31T08:16:40.605Z,37.19
2018-07-31T08:17:41.189Z,37.19
2018-07-31T08:18:41.774Z,36.94
2018-07-31T08:19:42.366Z,36.43
2018-07-31T08:20:42.965Z,36.19
2018-07-31T08:21:43.569Z,35.86
2018-07-31T08:22:44.153Z,35.70
2018-07-31T08:23:44.759Z,35.51
2018-07-31T08:24:45.340Z,35.52
2018-07-31T08:25:45.922Z,34.99
2018-07-31T08:26:46.527Z,35.02
2018-07-31T08:27:47.169Z,34.92
2018-07-31T08:28:47.708Z,34.60
2018-07-31T08:29:48.291Z,34.61
2018-07-31T08:30:48.876Z,34.42
2018-07-31T08:31:49.462Z,34.46
2018-07-31T08:32:50.048Z,34.07
2018-07-31T08:33:50.631Z,34.19
2018-07-31T08:34:51.216Z,34.14
2018-07-31T08:35:51.802Z,34.36
2018-07-31T08:36:52.388Z,34.51
2018-07-31T08:37:52.970Z,34.35
2018-07-31T08:38:53.558Z,34.43
2018-07-31T08:39:54.163Z,34.11
2018-07-31T08:40:54.769Z,33.97
2018-07-31T08:41:55.355Z,33.98
2018-07-31T08:42:55.939Z,33.97
2018-07-31T08:43:56.522Z,34.01
2018-07-31T08:44:57.107Z,34.14
2018-07-31T08:45:57.692Z,34.53
2018-07-31T08:46:58.295Z,34.74
2018-07-31T08:47:58.901Z,34.74
2018-07-31T08:48:59.505Z,34.61
2018-07-31T08:50:00.105Z,34.58
2018-07-31T08:51:00.708Z,34.42
2018-07-31T08:52:01.289Z,34.24
2018-07-31T08:53:01.872Z,33.80
2018-07-31T08:54:02.455Z,33.58
2018-07-31T08:55:03.038Z,33.34
2018-07-31T08:56:03.621Z,33.56
2018-07-31T08:57:04.331Z,33.28
2018-07-31T08:58:04.786Z,33.13
2018-07-31T08:59:05.367Z,32.67
2018-07-31T09:00:05.949Z,32.83
2018-07-31T09:01:06.528Z,32.80
2018-07-31T09:02:07.134Z,32.62
2018-07-31T09:03:07.735Z,32.59
2018-07-31T09:04:08.340Z,32.63
2018-07-31T09:05:08.920Z,32.43
2018-07-31T09:06:09.501Z,32.47
2018-07-31T09:07:10.081Z,32.32
2018-07-31T09:08:10.668Z,32.10
2018-07-31T09:09:11.243Z,32.05
2018-07-31T09:10:11.822Z,31.61
2018-07-31T09:11:12.403Z,31.73
2018-07-31T09:12:12.986Z,31.67
2018-07-31T09:13:13.562Z,31.57
2018-07-31T09:14:14.144Z,31.71
2018-07-31T09:15:14.725Z,31.90
2018-07-31T09:16:15.305Z,31.99
2018-07-31T09:17:15.889Z,32.07
2018-07-31T09:18:16.470Z,32.41
2018-07-31T09:19:17.056Z,32.54
2018-07-31T09:20:17.633Z,32.43
2018-07-31T09:21:18.216Z,32.24
2018-07-31T09:22:18.817Z,32.49
2018-07-31T09:23:19.384Z,32.62
2018-07-31T09:24:20.008Z,32.71
2018-07-31T09:25:20.547Z,32.71
2018-07-31T09:26:21.128Z,32.67
2018-07-31T09:27:21.706Z,32.51
2018-07-31T09:28:22.287Z,32.43
2018-07-31T09:29:22.866Z,32.44
2018-07-31T09:30:23.454Z,32.36
2018-07-31T09:31:24.030Z,32.39
2018-07-31T09:32:24.611Z,32.33
2018-07-31T09:33:25.197Z,32.48
2018-07-31T09:34:25.779Z,32.71
2018-07-31T09:35:26.369Z,32.96
2018-07-31T09:36:26.959Z,33.30
2018-07-31T09:37:27.535Z,33.52
2018-07-31T09:38:28.120Z,33.67
2018-07-31T09:39:28.722Z,33.70
2018-07-31T09:40:29.328Z,33.77
2018-07-31T09:41:29.911Z,33.71
2018-07-31T09:42:30.522Z,33.67
2018-07-31T09:43:31.103Z,33.70
2018-07-31T09:44:31.688Z,34.01
2018-07-31T09:45:32.272Z,34.35
2018-07-31T09:46:32.856Z,34.50
2018-07-31T09:47:33.438Z,34.36
2018-07-31T09:51:03.698Z,34.74
2018-07-31T09:52:04.282Z,34.64
2018-07-31T09:53:04.864Z,34.73
2018-07-31T09:54:05.448Z,34.70
2018-07-31T09:55:06.033Z,34.61
2018-07-31T09:56:06.618Z,34.83
2018-07-31T09:57:07.221Z,34.95
2018-07-31T09:58:07.808Z,35.05
2018-07-31T09:59:08.416Z,35.20
2018-07-31T10:00:08.980Z,35.40
2018-07-31T10:01:09.566Z,35.40
2018-07-31T10:02:10.152Z,35.45
2018-07-31T10:03:10.740Z,35.17
2018-07-31T10:04:11.322Z,34.60
2018-07-31T10:05:11.910Z,34.30
2018-07-31T10:06:12.489Z,34.29
2018-07-31T10:07:13.095Z,34.43
2018-07-31T10:08:13.677Z,34.41
2018-07-31T10:09:14.260Z,34.60
2018-07-31T10:10:14.843Z,34.80
2018-07-31T10:11:15.450Z,34.98
2018-07-31T10:12:16.130Z,35.26
2018-07-31T10:13:16.636Z,35.20
2018-07-31T10:14:17.220Z,35.36
2018-07-31T10:15:17.807Z,35.45
2018-07-31T10:16:18.409Z,35.03
2018-07-31T10:17:18.995Z,34.98
2018-07-31T10:18:19.644Z,34.96
2018-07-31T10:19:20.174Z,34.84
2018-07-31T10:20:20.777Z,34.86
2018-07-31T10:21:21.361Z,34.60
2018-07-31T10:22:21.947Z,34.77
2018-07-31T10:23:22.532Z,35.05
2018-07-31T10:24:23.159Z,35.01
2018-07-31T10:25:23.706Z,34.96
2018-07-31T10:26:24.314Z,35.15
2018-07-31T10:27:24.898Z,35.29
2018-07-31T10:28:25.484Z,35.48
2018-07-31T10:29:26.069Z,35.70
2018-07-31T10:30:26.675Z,35.45
2018-07-31T10:31:27.261Z,35.54
2018-07-31T10:32:27.845Z,35.52
2018-07-31T10:33:28.430Z,35.23
2018-07-31T10:34:29.014Z,35.50
2018-07-31T10:35:29.597Z,35.67
2018-07-31T10:36:30.185Z,35.70
2018-07-31T10:37:30.972Z,35.62
2018-07-31T10:38:31.520Z,35.86
2018-07-31T10:39:32.129Z,36.07
2018-07-31T10:40:32.720Z,36.06
2018-07-31T10:41:33.325Z,36.11
2018-07-31T10:42:33.930Z,35.86
2018-07-31T10:43:34.544Z,35.88
2018-07-31T10:44:35.136Z,36.03
2018-07-31T10:45:35.866Z,36.14
2018-07-31T10:46:36.450Z,35.98
2018-07-31T10:47:37.035Z,35.85
2018-07-31T10:48:37.620Z,35.79
2018-07-31T10:49:38.205Z,35.64
2018-07-31T10:50:38.853Z,35.35
2018-07-31T10:51:39.382Z,35.66
2018-07-31T10:52:39.961Z,35.88
2018-07-31T10:53:40.547Z,36.07
2018-07-31T10:54:41.132Z,36.38
2018-07-31T10:55:41.718Z,36.76
2018-07-31T10:56:42.305Z,36.91
2018-07-31T10:57:42.912Z,36.67
2018-07-31T10:58:43.540Z,36.41
2018-07-31T10:59:44.215Z,36.58
2018-07-31T11:00:44.706Z,36.98
2018-07-31T11:01:45.312Z,37.12
2018-07-31T11:02:45.963Z,36.61
2018-07-31T11:03:46.508Z,36.79
2018-07-31T11:04:47.088Z,36.98
2018-07-31T11:05:47.674Z,36.80
2018-07-31T11:06:48.261Z,36.76
2018-07-31T11:07:48.847Z,36.30
2018-07-31T11:08:49.433Z,36.14
2018-07-31T11:09:50.018Z,35.95
2018-07-31T11:10:50.625Z,36.26
2018-07-31T11:11:51.211Z,36.38
2018-07-31T11:12:51.818Z,36.34
2018-07-31T11:13:52.404Z,36.56
2018-07-31T11:14:52.990Z,36.56
2018-07-31T11:15:53.579Z,36.14
2018-07-31T11:16:54.160Z,36.03
2018-07-31T11:17:54.744Z,36.03
2018-07-31T11:18:55.350Z,35.89
2018-07-31T11:19:55.932Z,36.27
2018-07-31T11:20:56.542Z,36.01
2018-07-31T11:21:57.100Z,36.26
2018-07-31T11:22:57.685Z,36.50
2018-07-31T11:23:58.272Z,36.98
2018-07-31T11:24:58.857Z,36.91
2018-07-31T11:25:59.444Z,37.10
2018-07-31T11:27:00.050Z,37.24
2018-07-31T11:28:00.633Z,37.33
2018-07-31T11:29:01.216Z,37.26
2018-07-31T11:30:01.802Z,37.20
2018-07-31T11:31:02.386Z,37.54
2018-07-31T11:32:02.971Z,37.77
2018-07-31T11:33:03.630Z,37.67
2018-07-31T11:34:04.161Z,37.59
2018-07-31T11:35:04.741Z,37.46
2018-07-31T11:36:05.325Z,37.56
2018-07-31T11:37:05.908Z,37.61
2018-07-31T11:38:06.494Z,37.46
2018-07-31T11:39:07.078Z,37.02
2018-07-31T11:40:07.662Z,36.83
2018-07-31T11:41:08.246Z,37.21
2018-07-31T11:42:08.879Z,37.55
2018-07-31T11:43:09.462Z,37.67
2018-07-31T11:44:10.047Z,37.59
2018-07-31T11:45:10.630Z,37.69
2018-07-31T11:46:11.216Z,37.69
2018-07-31T11:47:11.801Z,37.69
2018-07-31T11:48:12.386Z,37.88
2018-07-31T11:49:12.972Z,37.73
2018-07-31T11:50:13.619Z,37.96
2018-07-31T11:51:14.183Z,38.26
2018-07-31T11:52:14.764Z,38.11
2018-07-31T11:53:15.363Z,37.69
2018-07-31T11:54:15.951Z,37.31
2018-07-31T11:55:16.537Z,37.64
2018-07-31T11:56:17.124Z,37.77
2018-07-31T11:57:17.710Z,37.92
2018-07-31T11:58:18.304Z,38.15
2018-07-31T11:59:18.882Z,38.49
2018-07-31T12:00:19.469Z,38.80
2018-07-31T12:01:20.056Z,39.02
2018-07-31T12:02:20.641Z,38.54
2018-07-31T12:03:21.226Z,38.05
2018-07-31T12:04:21.844Z,38.07
2018-07-31T12:05:22.400Z,38.24
2018-07-31T12:06:22.986Z,38.10
2018-07-31T12:07:23.572Z,38.23
2018-07-31T12:08:24.158Z,38.49
2018-07-31T12:09:24.762Z,38.70
2018-07-31T12:10:25.368Z,38.51
2018-07-31T12:11:25.996Z,38.80
2018-07-31T12:12:26.538Z,38.80
2018-07-31T12:13:27.122Z,38.86
2018-07-31T12:14:27.706Z,39.21
2018-07-31T12:15:28.289Z,39.14
2018-07-31T12:16:28.872Z,38.98
2018-07-31T12:17:29.457Z,39.02
2018-07-31T12:18:30.041Z,39.06
2018-07-31T12:19:30.628Z,39.10
2018-07-31T12:20:31.214Z,38.99
2018-07-31T12:21:31.800Z,38.79
2018-07-31T12:22:32.385Z,38.41
2018-07-31T12:23:32.971Z,38.79
2018-07-31T12:24:33.556Z,39.08
2018-07-31T12:25:34.161Z,39.23
2018-07-31T12:26:34.745Z,38.74
2018-07-31T12:27:35.330Z,38.59
2018-07-31T12:28:35.935Z,38.63
2018-07-31T12:29:36.520Z,38.36
2018-07-31T12:30:37.105Z,38.08
2018-07-31T12:31:37.695Z,38.32
2018-07-31T12:32:38.277Z,38.49
2018-07-31T12:33:38.862Z,38.29
2018-07-31T12:34:39.448Z,38.36
2018-07-31T12:35:40.032Z,38.68
2018-07-31T12:36:40.615Z,38.82
2018-07-31T12:37:41.204Z,38.71
2018-07-31T12:38:41.794Z,38.49
2018-07-31T12:39:42.375Z,38.52
2018-07-31T12:40:42.978Z,38.52
2018-07-31T12:41:43.589Z,38.39
2018-07-31T12:42:44.172Z,38.08
2018-07-31T12:43:44.761Z,38.10
2018-07-31T12:44:45.361Z,38.51
2018-07-31T12:45:45.945Z,38.59
2018-07-31T12:46:46.532Z,38.51
2018-07-31T12:47:47.132Z,38.59
2018-07-31T12:48:47.739Z,38.76
2018-07-31T12:49:48.320Z,38.15
2018-07-31T12:50:48.905Z,38.52
2018-07-31T12:51:49.490Z,38.63
2018-07-31T12:52:50.072Z,38.51
2018-07-31T12:53:50.657Z,38.79
2018-07-31T12:54:51.240Z,38.86
2018-07-31T12:55:51.823Z,39.10
2018-07-31T12:56:52.407Z,38.89
2018-07-31T12:57:52.992Z,38.54
2018-07-31T12:58:53.575Z,38.55
2018-07-31T12:59:54.173Z,38.29
2018-07-31T13:00:54.747Z,38.15
2018-07-31T13:01:55.333Z,38.57
2018-07-31T13:02:55.923Z,38.39